Juan de Fuca Strait - east entrance: Past 24 Hour Conditions

 

Saturna Island

05:00 PM PST 23 November 2014
This table is a summary of hourly weather conditions for the past 24 hours.
Date / Time
(PST)
Wind(knots) Conditions Visibility(km) Pressure(kPa) Air tempC) Relative humidity(%) Dew pointC)
23 November 2014
17:00 W 3 N/A N/A 102.1 9 64 3
16:00 W 4 N/A N/A 102.1 10 61 3
15:00 WNW 7 N/A N/A 102.0 11 56 2
14:00 WNW 3 N/A N/A 101.9 12 54 3
13:00 W 4 gust 18 N/A N/A 101.8 12 56 3
12:00 W 6 N/A N/A 101.8 12 58 4
11:00 NW 4 N/A N/A 101.7 11 68 6
10:00 WSW 14 gust 20 N/A N/A 101.6 11 80 8
9:00 WSW 16 gust 23 N/A N/A 101.6 9 93 8
8:00 SW 21 gust 30 N/A N/A 101.5 8 92 7
7:00 SW 30 N/A N/A 101.4 8 91 7
6:00 SSW 30 gust 35 N/A N/A 101.4 9 86 6
5:00 SSW 27 N/A N/A 101.4 8 87 6
4:00 S 22 gust 27 N/A N/A 101.5 8 86 6
3:00 SSW 26 N/A N/A 101.7 8 87 6
2:00 S 18 N/A N/A 101.8 9 86 7
1:00 SW 16 N/A N/A 101.8 9 86 7
0:00 SW 19 N/A N/A 101.8 9 83 6
22 November 2014
23:00 WSW 11 N/A N/A 101.8 8 82 6
22:00 WSW 8 N/A N/A 101.7 8 80 5
21:00 WSW 11 N/A N/A 101.6 8 81 5
20:00 WSW 6 N/A N/A 101.6 8 78 4
19:00 WSW 4 N/A N/A 101.5 8 78 4
18:00 W 4 N/A N/A 101.4 8 73 3
17:00 W 3 N/A N/A 101.4 8 81 5
 
Map of Pacific - Georgia Basin marine weather areas Tsawwassen Ferry Terminal Sentry Shoal - 46131 Halibut Bank - 46146 La Perouse Bank - 46206 Discovery Island Esquimalt Harbour Kelp Reefs Malahat Race Rocks Lightstation Saturna Island Sheringham Point University of Victoria Victoria Gonzales Victoria Int'l Airport Ballenas Islands Campbell River Airport Comox Airport Entrance Island Fanny Island Nanaimo Airport Sisters Islets Estevan Point Tofino Airport Grief Point Powell River Airport Sechelt Point Atkinson Sand Heads Lightstation Vancouver Harbour Vancouver Int'l Airport West Vancouver Port Alberni Howe Sound - Pam Rocks Squamish Airport